sensor_id;sensor_type;location;lat;lon;timestamp;P1;durP1;ratioP1;P2;durP2;ratioP2
13609;SDS011;6876;50.788;4.940;2022-10-01T00:00:19;1999.90;;;999.90;;
13609;SDS011;6876;50.788;4.940;2022-10-01T00:03:09;1999.90;;;999.90;;
13609;SDS011;6876;50.788;4.940;2022-10-01T00:05:59;1999.90;;;999.90;;
13609;SDS011;6876;50.788;4.940;2022-10-01T00:08:48;1999.90;;;999.90;;
13609;SDS011;6876;50.788;4.940;2022-10-01T00:11:36;1999.90;;;999.90;;
13609;SDS011;6876;50.788;4.940;2022-10-01T00:14:23;1999.90;;;999.90;;
13609;SDS011;6876;50.788;4.940;2022-10-01T00:17:10;1999.90;;;999.90;;
13609;SDS011;6876;50.788;4.940;2022-10-01T00:19:59;1999.90;;;999.90;;
13609;SDS011;6876;50.788;4.940;2022-10-01T00:22:47;1999.90;;;999.90;;
13609;SDS011;6876;50.788;4.940;2022-10-01T00:25:34;1999.90;;;999.90;;
13609;SDS011;6876;50.788;4.940;2022-10-01T00:28:21;1999.90;;;999.90;;
13609;SDS011;6876;50.788;4.940;2022-10-01T00:31:09;1999.90;;;999.90;;
13609;SDS011;6876;50.788;4.940;2022-10-01T00:33:57;1999.90;;;999.90;;
13609;SDS011;6876;50.788;4.940;2022-10-01T00:36:48;1999.90;;;999.90;;
13609;SDS011;6876;50.788;4.940;2022-10-01T00:39:35;1999.90;;;999.90;;
13609;SDS011;6876;50.788;4.940;2022-10-01T00:42:23;1999.90;;;999.90;;
13609;SDS011;6876;50.788;4.940;2022-10-01T00:45:12;1999.90;;;999.90;;
13609;SDS011;6876;50.788;4.940;2022-10-01T00:48:01;1999.90;;;999.90;;
13609;SDS011;6876;50.788;4.940;2022-10-01T00:50:48;1999.90;;;999.90;;
13609;SDS011;6876;50.788;4.940;2022-10-01T00:53:38;1999.90;;;999.90;;
13609;SDS011;6876;50.788;4.940;2022-10-01T00:56:27;1999.90;;;999.90;;
13609;SDS011;6876;50.788;4.940;2022-10-01T00:59:14;1999.90;;;999.90;;
13609;SDS011;6876;50.788;4.940;2022-10-01T01:02:02;1999.90;;;999.90;;
13609;SDS011;6876;50.788;4.940;2022-10-01T01:04:49;1999.90;;;999.90;;
13609;SDS011;6876;50.788;4.940;2022-10-01T01:07:37;1999.90;;;999.90;;
13609;SDS011;6876;50.788;4.940;2022-10-01T01:10:27;1999.90;;;999.90;;
13609;SDS011;6876;50.788;4.940;2022-10-01T01:13:22;1999.90;;;999.90;;
13609;SDS011;6876;50.788;4.940;2022-10-01T01:16:16;1999.90;;;999.90;;
13609;SDS011;6876;50.788;4.940;2022-10-01T01:19:11;1999.90;;;999.90;;
13609;SDS011;6876;50.788;4.940;2022-10-01T01:22:10;1999.90;;;999.90;;
13609;SDS011;6876;50.788;4.940;2022-10-01T01:25:01;1999.90;;;999.90;;
13609;SDS011;6876;50.788;4.940;2022-10-01T01:28:00;1999.90;;;999.90;;
13609;SDS011;6876;50.788;4.940;2022-10-01T01:30:53;1999.90;;;999.90;;
13609;SDS011;6876;50.788;4.940;2022-10-01T01:33:45;1999.90;;;999.90;;
13609;SDS011;6876;50.788;4.940;2022-10-01T01:36:35;1999.90;;;999.90;;
13609;SDS011;6876;50.788;4.940;2022-10-01T01:39:23;1999.90;;;999.90;;
13609;SDS011;6876;50.788;4.940;2022-10-01T01:42:13;1999.90;;;999.90;;
13609;SDS011;6876;50.788;4.940;2022-10-01T01:45:08;1999.90;;;999.90;;
13609;SDS011;6876;50.788;4.940;2022-10-01T01:47:58;1999.90;;;999.90;;
13609;SDS011;6876;50.788;4.940;2022-10-01T01:50:49;1999.90;;;999.90;;
13609;SDS011;6876;50.788;4.940;2022-10-01T01:53:39;1999.90;;;999.90;;
13609;SDS011;6876;50.788;4.940;2022-10-01T01:56:27;1999.90;;;999.90;;
13609;SDS011;6876;50.788;4.940;2022-10-01T01:59:16;1999.90;;;999.90;;
13609;SDS011;6876;50.788;4.940;2022-10-01T02:02:05;1999.90;;;999.90;;
13609;SDS011;6876;50.788;4.940;2022-10-01T02:04:53;1999.90;;;999.90;;
13609;SDS011;6876;50.788;4.940;2022-10-01T02:07:53;1999.90;;;999.90;;
13609;SDS011;6876;50.788;4.940;2022-10-01T02:11:14;1999.90;;;999.90;;
13609;SDS011;6876;50.788;4.940;2022-10-01T02:14:06;1999.90;;;999.90;;
13609;SDS011;6876;50.788;4.940;2022-10-01T02:17:04;1999.90;;;999.90;;
13609;SDS011;6876;50.788;4.940;2022-10-01T02:20:02;1999.90;;;999.90;;
13609;SDS011;6876;50.788;4.940;2022-10-01T02:22:55;1433.03;;;761.47;;
13609;SDS011;6876;50.788;4.940;2022-10-01T02:25:45;239.30;;;228.10;;
13609;SDS011;6876;50.788;4.940;2022-10-01T02:28:36;232.40;;;221.57;;
13609;SDS011;6876;50.788;4.940;2022-10-01T02:31:26;217.70;;;207.53;;
13609;SDS011;6876;50.788;4.940;2022-10-01T02:34:16;46.90;;;43.70;;
13609;SDS011;6876;50.788;4.940;2022-10-01T02:37:05;17.50;;;16.57;;
13609;SDS011;6876;50.788;4.940;2022-10-01T02:39:55;16.93;;;16.17;;
13609;SDS011;6876;50.788;4.940;2022-10-01T02:42:45;18.70;;;17.83;;
13609;SDS011;6876;50.788;4.940;2022-10-01T02:45:36;17.83;;;16.97;;
13609;SDS011;6876;50.788;4.940;2022-10-01T02:48:26;20.60;;;19.60;;
13609;SDS011;6876;50.788;4.940;2022-10-01T02:51:17;19.63;;;18.67;;
13609;SDS011;6876;50.788;4.940;2022-10-01T02:54:13;19.27;;;18.33;;
13609;SDS011;6876;50.788;4.940;2022-10-01T02:57:05;21.60;;;20.30;;
13609;SDS011;6876;50.788;4.940;2022-10-01T03:00:12;17.47;;;16.57;;
13609;SDS011;6876;50.788;4.940;2022-10-01T03:03:01;19.00;;;18.10;;
13609;SDS011;6876;50.788;4.940;2022-10-01T03:05:48;18.77;;;17.90;;
13609;SDS011;6876;50.788;4.940;2022-10-01T03:08:37;21.63;;;20.63;;
13609;SDS011;6876;50.788;4.940;2022-10-01T03:11:24;18.53;;;17.63;;
13609;SDS011;6876;50.788;4.940;2022-10-01T03:14:11;21.57;;;20.57;;
13609;SDS011;6876;50.788;4.940;2022-10-01T03:16:59;26.43;;;25.10;;
13609;SDS011;6876;50.788;4.940;2022-10-01T03:19:46;25.83;;;24.60;;
13609;SDS011;6876;50.788;4.940;2022-10-01T03:22:33;25.17;;;23.87;;
13609;SDS011;6876;50.788;4.940;2022-10-01T03:25:22;23.70;;;22.60;;
13609;SDS011;6876;50.788;4.940;2022-10-01T03:28:09;28.27;;;26.77;;
13609;SDS011;6876;50.788;4.940;2022-10-01T03:31:03;28.17;;;26.87;;
13609;SDS011;6876;50.788;4.940;2022-10-01T03:33:51;26.77;;;25.40;;
13609;SDS011;6876;50.788;4.940;2022-10-01T03:36:38;46.50;;;43.93;;
13609;SDS011;6876;50.788;4.940;2022-10-01T03:39:25;82.13;;;77.77;;
13609;SDS011;6876;50.788;4.940;2022-10-01T03:42:14;29.53;;;28.17;;
13609;SDS011;6876;50.788;4.940;2022-10-01T03:45:01;54.30;;;50.97;;
13609;SDS011;6876;50.788;4.940;2022-10-01T03:47:52;28.40;;;27.13;;
13609;SDS011;6876;50.788;4.940;2022-10-01T03:50:39;32.10;;;30.60;;
13609;SDS011;6876;50.788;4.940;2022-10-01T03:53:26;28.93;;;27.47;;
13609;SDS011;6876;50.788;4.940;2022-10-01T03:56:15;30.80;;;29.33;;
13609;SDS011;6876;50.788;4.940;2022-10-01T03:59:05;30.80;;;29.40;;
13609;SDS011;6876;50.788;4.940;2022-10-01T04:01:52;38.80;;;36.67;;
13609;SDS011;6876;50.788;4.940;2022-10-01T04:04:39;36.13;;;34.43;;
13609;SDS011;6876;50.788;4.940;2022-10-01T04:07:27;35.93;;;34.27;;
13609;SDS011;6876;50.788;4.940;2022-10-01T04:10:14;30.67;;;29.27;;
13609;SDS011;6876;50.788;4.940;2022-10-01T04:13:01;34.70;;;33.10;;
13609;SDS011;6876;50.788;4.940;2022-10-01T04:15:50;37.90;;;36.10;;
13609;SDS011;6876;50.788;4.940;2022-10-01T04:18:37;36.57;;;34.83;;
13609;SDS011;6876;50.788;4.940;2022-10-01T04:21:25;41.70;;;39.73;;
13609;SDS011;6876;50.788;4.940;2022-10-01T04:24:12;42.50;;;40.37;;
13609;SDS011;6876;50.788;4.940;2022-10-01T04:26:59;40.50;;;38.63;;
13609;SDS011;6876;50.788;4.940;2022-10-01T04:29:46;40.40;;;38.47;;
13609;SDS011;6876;50.788;4.940;2022-10-01T04:32:35;43.40;;;41.37;;
13609;SDS011;6876;50.788;4.940;2022-10-01T04:35:23;40.80;;;38.90;;
13609;SDS011;6876;50.788;4.940;2022-10-01T04:38:11;44.07;;;42.03;;
13609;SDS011;6876;50.788;4.940;2022-10-01T04:41:00;48.30;;;45.90;;
13609;SDS011;6876;50.788;4.940;2022-10-01T04:43:47;47.30;;;45.07;;
13609;SDS011;6876;50.788;4.940;2022-10-01T04:46:35;42.10;;;40.17;;
13609;SDS011;6876;50.788;4.940;2022-10-01T04:49:23;44.87;;;42.70;;
13609;SDS011;6876;50.788;4.940;2022-10-01T04:52:10;47.40;;;45.20;;
13609;SDS011;6876;50.788;4.940;2022-10-01T04:54:58;48.20;;;45.97;;
13609;SDS011;6876;50.788;4.940;2022-10-01T04:57:45;57.37;;;54.70;;
13609;SDS011;6876;50.788;4.940;2022-10-01T05:00:33;59.53;;;56.60;;
13609;SDS011;6876;50.788;4.940;2022-10-01T05:03:21;57.97;;;55.23;;
13609;SDS011;6876;50.788;4.940;2022-10-01T05:06:09;55.00;;;52.30;;
13609;SDS011;6876;50.788;4.940;2022-10-01T05:08:56;50.87;;;48.50;;
13609;SDS011;6876;50.788;4.940;2022-10-01T05:11:44;69.63;;;66.33;;
13609;SDS011;6876;50.788;4.940;2022-10-01T05:14:31;67.83;;;64.60;;
13609;SDS011;6876;50.788;4.940;2022-10-01T05:17:18;58.33;;;55.60;;
13609;SDS011;6876;50.788;4.940;2022-10-01T05:20:08;63.97;;;60.97;;
13609;SDS011;6876;50.788;4.940;2022-10-01T05:23:01;80.87;;;77.07;;
13609;SDS011;6876;50.788;4.940;2022-10-01T05:25:48;62.27;;;59.30;;
13609;SDS011;6876;50.788;4.940;2022-10-01T05:28:36;66.50;;;63.17;;
13609;SDS011;6876;50.788;4.940;2022-10-01T05:31:29;63.40;;;60.40;;
13609;SDS011;6876;50.788;4.940;2022-10-01T05:34:16;66.23;;;63.07;;
13609;SDS011;6876;50.788;4.940;2022-10-01T05:37:04;51.60;;;49.10;;
13609;SDS011;6876;50.788;4.940;2022-10-01T05:39:53;58.67;;;55.87;;
13609;SDS011;6876;50.788;4.940;2022-10-01T05:42:43;64.00;;;60.97;;
13609;SDS011;6876;50.788;4.940;2022-10-01T05:45:31;61.37;;;58.43;;
13609;SDS011;6876;50.788;4.940;2022-10-01T05:48:20;103.47;;;98.40;;
13609;SDS011;6876;50.788;4.940;2022-10-01T05:51:07;53.07;;;50.50;;
13609;SDS011;6876;50.788;4.940;2022-10-01T05:53:54;71.20;;;67.80;;
13609;SDS011;6876;50.788;4.940;2022-10-01T05:56:44;65.93;;;62.67;;
13609;SDS011;6876;50.788;4.940;2022-10-01T05:59:31;63.57;;;60.50;;
13609;SDS011;6876;50.788;4.940;2022-10-01T06:02:19;57.47;;;54.70;;
13609;SDS011;6876;50.788;4.940;2022-10-01T06:05:06;66.80;;;63.60;;
13609;SDS011;6876;50.788;4.940;2022-10-01T06:07:53;63.00;;;59.97;;
13609;SDS011;6876;50.788;4.940;2022-10-01T06:10:40;66.33;;;63.13;;
13609;SDS011;6876;50.788;4.940;2022-10-01T06:13:30;63.23;;;60.10;;
13609;SDS011;6876;50.788;4.940;2022-10-01T06:16:17;69.00;;;65.70;;
13609;SDS011;6876;50.788;4.940;2022-10-01T06:19:05;85.03;;;80.83;;
13609;SDS011;6876;50.788;4.940;2022-10-01T06:21:52;117.97;;;112.03;;
13609;SDS011;6876;50.788;4.940;2022-10-01T06:24:40;81.73;;;77.73;;
13609;SDS011;6876;50.788;4.940;2022-10-01T06:27:27;77.20;;;73.47;;
13609;SDS011;6876;50.788;4.940;2022-10-01T06:30:15;66.77;;;63.37;;
13609;SDS011;6876;50.788;4.940;2022-10-01T06:33:04;43.33;;;41.20;;
13609;SDS011;6876;50.788;4.940;2022-10-01T06:35:53;80.67;;;76.67;;
13609;SDS011;6876;50.788;4.940;2022-10-01T06:38:40;66.23;;;63.03;;
13609;SDS011;6876;50.788;4.940;2022-10-01T06:41:28;52.30;;;49.80;;
13609;SDS011;6876;50.788;4.940;2022-10-01T06:44:15;59.10;;;56.27;;
13609;SDS011;6876;50.788;4.940;2022-10-01T06:47:04;90.27;;;85.70;;
13609;SDS011;6876;50.788;4.940;2022-10-01T06:49:51;56.57;;;53.87;;
13609;SDS011;6876;50.788;4.940;2022-10-01T06:52:39;57.80;;;55.03;;
13609;SDS011;6876;50.788;4.940;2022-10-01T06:55:35;55.67;;;52.87;;
13609;SDS011;6876;50.788;4.940;2022-10-01T06:58:23;65.60;;;62.30;;
13609;SDS011;6876;50.788;4.940;2022-10-01T07:01:11;126.57;;;119.97;;
13609;SDS011;6876;50.788;4.940;2022-10-01T07:04:02;62.70;;;59.50;;
13609;SDS011;6876;50.788;4.940;2022-10-01T07:06:49;81.10;;;76.97;;
13609;SDS011;6876;50.788;4.940;2022-10-01T07:09:37;80.17;;;76.10;;
13609;SDS011;6876;50.788;4.940;2022-10-01T07:12:24;60.57;;;57.23;;
13609;SDS011;6876;50.788;4.940;2022-10-01T07:15:11;83.77;;;79.57;;
13609;SDS011;6876;50.788;4.940;2022-10-01T07:17:59;70.80;;;67.40;;
13609;SDS011;6876;50.788;4.940;2022-10-01T07:20:47;80.90;;;76.70;;
13609;SDS011;6876;50.788;4.940;2022-10-01T07:23:34;79.70;;;75.70;;
13609;SDS011;6876;50.788;4.940;2022-10-01T07:26:22;96.13;;;91.40;;
13609;SDS011;6876;50.788;4.940;2022-10-01T07:29:09;165.53;;;157.27;;
13609;SDS011;6876;50.788;4.940;2022-10-01T07:31:56;200.57;;;187.97;;
13609;SDS011;6876;50.788;4.940;2022-10-01T07:34:44;82.97;;;78.80;;
13609;SDS011;6876;50.788;4.940;2022-10-01T07:37:33;96.50;;;91.80;;
13609;SDS011;6876;50.788;4.940;2022-10-01T07:40:20;85.40;;;81.20;;
13609;SDS011;6876;50.788;4.940;2022-10-01T07:43:08;92.03;;;87.37;;
13609;SDS011;6876;50.788;4.940;2022-10-01T07:45:55;122.23;;;116.20;;
13609;SDS011;6876;50.788;4.940;2022-10-01T07:48:46;127.07;;;120.93;;
13609;SDS011;6876;50.788;4.940;2022-10-01T07:51:33;284.63;;;270.40;;
13609;SDS011;6876;50.788;4.940;2022-10-01T07:54:22;626.07;;;588.67;;
13609;SDS011;6876;50.788;4.940;2022-10-01T07:57:10;471.30;;;446.52;;
13609;SDS011;6876;50.788;4.940;2022-10-01T07:59:57;660.88;;;619.30;;
13609;SDS011;6876;50.788;4.940;2022-10-01T08:02:48;522.38;;;493.25;;
13609;SDS011;6876;50.788;4.940;2022-10-01T08:05:36;616.30;;;580.40;;
13609;SDS011;6876;50.788;4.940;2022-10-01T08:08:26;763.50;;;711.72;;
13609;SDS011;6876;50.788;4.940;2022-10-01T08:11:15;909.83;;;838.08;;
13609;SDS011;6876;50.788;4.940;2022-10-01T08:14:02;794.45;;;738.88;;
13609;SDS011;6876;50.788;4.940;2022-10-01T08:16:50;726.97;;;679.30;;
13609;SDS011;6876;50.788;4.940;2022-10-01T08:19:39;761.38;;;709.08;;
13609;SDS011;6876;50.788;4.940;2022-10-01T08:22:27;735.80;;;687.10;;
13609;SDS011;6876;50.788;4.940;2022-10-01T08:25:14;730.55;;;681.88;;
13609;SDS011;6876;50.788;4.940;2022-10-01T08:28:03;826.97;;;767.53;;
13609;SDS011;6876;50.788;4.940;2022-10-01T08:30:50;863.40;;;798.53;;
13609;SDS011;6876;50.788;4.940;2022-10-01T08:33:38;776.22;;;721.95;;
13609;SDS011;6876;50.788;4.940;2022-10-01T08:36:25;804.05;;;745.53;;
13609;SDS011;6876;50.788;4.940;2022-10-01T08:39:12;725.25;;;677.25;;
13609;SDS011;6876;50.788;4.940;2022-10-01T08:42:01;825.15;;;765.22;;
13609;SDS011;6876;50.788;4.940;2022-10-01T08:44:53;806.97;;;747.22;;
13609;SDS011;6876;50.788;4.940;2022-10-01T08:47:41;777.72;;;722.05;;
13609;SDS011;6876;50.788;4.940;2022-10-01T08:50:35;855.92;;;790.13;;
13609;SDS011;6876;50.788;4.940;2022-10-01T08:53:32;907.30;;;835.33;;
13609;SDS011;6876;50.788;4.940;2022-10-01T08:56:24;1085.23;;;977.97;;
13609;SDS011;6876;50.788;4.940;2022-10-01T08:59:20;971.10;;;891.90;;
13609;SDS011;6876;50.788;4.940;2022-10-01T09:02:20;822.27;;;763.70;;
13609;SDS011;6876;50.788;4.940;2022-10-01T09:05:12;820.20;;;762.37;;
13609;SDS011;6876;50.788;4.940;2022-10-01T09:08:08;994.38;;;912.30;;
13609;SDS011;6876;50.788;4.940;2022-10-01T09:11:06;1118.03;;;997.65;;
13609;SDS011;6876;50.788;4.940;2022-10-01T09:14:26;1122.18;;;996.90;;
13609;SDS011;6876;50.788;4.940;2022-10-01T09:17:29;1999.90;;;999.90;;
13609;SDS011;6876;50.788;4.940;2022-10-01T09:20:28;1999.90;;;999.90;;
13609;SDS011;6876;50.788;4.940;2022-10-01T09:23:24;1999.90;;;999.90;;
13609;SDS011;6876;50.788;4.940;2022-10-01T09:26:13;1999.90;;;999.90;;
13609;SDS011;6876;50.788;4.940;2022-10-01T09:29:01;1999.90;;;999.90;;
13609;SDS011;6876;50.788;4.940;2022-10-01T09:31:51;1999.90;;;999.90;;
13609;SDS011;6876;50.788;4.940;2022-10-01T09:34:41;1999.90;;;999.90;;
13609;SDS011;6876;50.788;4.940;2022-10-01T09:37:37;955.97;;;869.03;;
13609;SDS011;6876;50.788;4.940;2022-10-01T09:40:33;928.03;;;852.80;;
13609;SDS011;6876;50.788;4.940;2022-10-01T09:43:26;973.30;;;885.20;;
13609;SDS011;6876;50.788;4.940;2022-10-01T09:46:15;1071.93;;;968.38;;
13609;SDS011;6876;50.788;4.940;2022-10-01T09:49:07;1051.72;;;951.78;;
13609;SDS011;6876;50.788;4.940;2022-10-01T09:52:01;1060.00;;;961.97;;
13609;SDS011;6876;50.788;4.940;2022-10-01T09:54:52;1266.18;;;999.90;;
13609;SDS011;6876;50.788;4.940;2022-10-01T09:57:45;895.83;;;825.40;;
13609;SDS011;6876;50.788;4.940;2022-10-01T10:00:38;942.10;;;865.38;;
13609;SDS011;6876;50.788;4.940;2022-10-01T10:03:26;983.97;;;896.92;;
13609;SDS011;6876;50.788;4.940;2022-10-01T10:06:15;1999.90;;;999.90;;
13609;SDS011;6876;50.788;4.940;2022-10-01T10:09:03;1999.90;;;999.90;;
13609;SDS011;6876;50.788;4.940;2022-10-01T10:12:00;1999.90;;;999.90;;
13609;SDS011;6876;50.788;4.940;2022-10-01T10:14:49;1999.90;;;999.90;;
13609;SDS011;6876;50.788;4.940;2022-10-01T10:17:39;1382.55;;;849.63;;
13609;SDS011;6876;50.788;4.940;2022-10-01T10:20:30;997.55;;;912.13;;
13609;SDS011;6876;50.788;4.940;2022-10-01T10:23:24;988.83;;;907.50;;
13609;SDS011;6876;50.788;4.940;2022-10-01T10:26:16;920.90;;;847.15;;
13609;SDS011;6876;50.788;4.940;2022-10-01T10:29:06;1072.03;;;965.55;;
13609;SDS011;6876;50.788;4.940;2022-10-01T10:32:12;851.83;;;788.60;;
13609;SDS011;6876;50.788;4.940;2022-10-01T10:35:09;935.42;;;860.03;;
13609;SDS011;6876;50.788;4.940;2022-10-01T10:38:00;895.08;;;826.00;;
13609;SDS011;6876;50.788;4.940;2022-10-01T10:40:48;896.92;;;826.85;;
13609;SDS011;6876;50.788;4.940;2022-10-01T10:43:36;870.47;;;803.65;;
13609;SDS011;6876;50.788;4.940;2022-10-01T10:46:25;894.33;;;825.47;;
13609;SDS011;6876;50.788;4.940;2022-10-01T10:49:16;1073.38;;;973.67;;
13609;SDS011;6876;50.788;4.940;2022-10-01T10:52:16;1024.90;;;931.85;;
13609;SDS011;6876;50.788;4.940;2022-10-01T10:55:18;800.95;;;746.50;;
13609;SDS011;6876;50.788;4.940;2022-10-01T10:58:10;732.25;;;686.70;;
13609;SDS011;6876;50.788;4.940;2022-10-01T11:01:04;775.88;;;724.33;;
13609;SDS011;6876;50.788;4.940;2022-10-01T11:03:55;713.10;;;668.67;;
13609;SDS011;6876;50.788;4.940;2022-10-01T11:06:52;834.05;;;775.95;;
13609;SDS011;6876;50.788;4.940;2022-10-01T11:09:46;832.17;;;771.50;;
13609;SDS011;6876;50.788;4.940;2022-10-01T11:12:56;832.10;;;770.63;;
13609;SDS011;6876;50.788;4.940;2022-10-01T11:15:57;903.08;;;832.15;;
13609;SDS011;6876;50.788;4.940;2022-10-01T11:19:02;811.40;;;751.65;;
13609;SDS011;6876;50.788;4.940;2022-10-01T11:22:02;893.97;;;826.35;;
13609;SDS011;6876;50.788;4.940;2022-10-01T11:28:17;871.95;;;806.90;;
13609;SDS011;6876;50.788;4.940;2022-10-01T11:31:19;909.75;;;839.10;;
13609;SDS011;6876;50.788;4.940;2022-10-01T11:34:19;958.90;;;879.55;;
13609;SDS011;6876;50.788;4.940;2022-10-01T11:37:37;938.95;;;866.50;;
13609;SDS011;6876;50.788;4.940;2022-10-01T11:40:35;848.17;;;786.70;;
13609;SDS011;6876;50.788;4.940;2022-10-01T11:43:29;900.85;;;831.85;;
13609;SDS011;6876;50.788;4.940;2022-10-01T11:46:24;995.80;;;912.75;;
13609;SDS011;6876;50.788;4.940;2022-10-01T11:49:19;952.20;;;878.03;;
13609;SDS011;6876;50.788;4.940;2022-10-01T11:52:15;1009.03;;;925.80;;
13609;SDS011;6876;50.788;4.940;2022-10-01T11:55:13;1028.88;;;942.38;;
13609;SDS011;6876;50.788;4.940;2022-10-01T11:58:23;1031.70;;;945.75;;
13609;SDS011;6876;50.788;4.940;2022-10-01T12:01:36;1066.40;;;970.35;;
13609;SDS011;6876;50.788;4.940;2022-10-01T12:04:28;1040.50;;;949.83;;
13609;SDS011;6876;50.788;4.940;2022-10-01T12:07:20;1044.85;;;950.58;;
13609;SDS011;6876;50.788;4.940;2022-10-01T12:10:14;1132.15;;;999.90;;
13609;SDS011;6876;50.788;4.940;2022-10-01T12:13:12;966.65;;;888.42;;
13609;SDS011;6876;50.788;4.940;2022-10-01T12:16:08;932.55;;;862.00;;
13609;SDS011;6876;50.788;4.940;2022-10-01T12:19:04;906.17;;;837.97;;
13609;SDS011;6876;50.788;4.940;2022-10-01T12:21:58;762.03;;;711.92;;
13609;SDS011;6876;50.788;4.940;2022-10-01T12:24:51;908.70;;;840.88;;
13609;SDS011;6876;50.788;4.940;2022-10-01T12:27:40;929.35;;;858.03;;
13609;SDS011;6876;50.788;4.940;2022-10-01T12:30:39;964.10;;;888.05;;
13609;SDS011;6876;50.788;4.940;2022-10-01T12:33:37;904.75;;;833.28;;
13609;SDS011;6876;50.788;4.940;2022-10-01T12:36:40;949.08;;;874.63;;
13609;SDS011;6876;50.788;4.940;2022-10-01T12:39:38;976.70;;;899.00;;
13609;SDS011;6876;50.788;4.940;2022-10-01T12:45:54;830.85;;;772.03;;
13609;SDS011;6876;50.788;4.940;2022-10-01T12:48:49;894.08;;;827.53;;
13609;SDS011;6876;50.788;4.940;2022-10-01T12:51:46;863.10;;;799.65;;
13609;SDS011;6876;50.788;4.940;2022-10-01T12:57:56;767.83;;;716.25;;
13609;SDS011;6876;50.788;4.940;2022-10-01T13:00:50;911.65;;;843.05;;
13609;SDS011;6876;50.788;4.940;2022-10-01T13:03:52;954.53;;;881.17;;
13609;SDS011;6876;50.788;4.940;2022-10-01T13:06:54;976.28;;;898.30;;
13609;SDS011;6876;50.788;4.940;2022-10-01T13:09:55;870.35;;;807.47;;
13609;SDS011;6876;50.788;4.940;2022-10-01T13:12:55;866.83;;;804.42;;
13609;SDS011;6876;50.788;4.940;2022-10-01T13:15:53;959.40;;;884.70;;
13609;SDS011;6876;50.788;4.940;2022-10-01T13:18:49;868.97;;;804.83;;
13609;SDS011;6876;50.788;4.940;2022-10-01T13:21:49;840.88;;;781.90;;
13609;SDS011;6876;50.788;4.940;2022-10-01T13:24:43;906.08;;;839.25;;
13609;SDS011;6876;50.788;4.940;2022-10-01T13:27:37;875.50;;;808.85;;
13609;SDS011;6876;50.788;4.940;2022-10-01T13:30:28;842.35;;;782.17;;
13609;SDS011;6876;50.788;4.940;2022-10-01T13:33:21;811.50;;;753.08;;
13609;SDS011;6876;50.788;4.940;2022-10-01T13:36:10;780.25;;;725.35;;
13609;SDS011;6876;50.788;4.940;2022-10-01T13:38:59;797.80;;;740.85;;
13609;SDS011;6876;50.788;4.940;2022-10-01T13:41:46;777.97;;;723.67;;
13609;SDS011;6876;50.788;4.940;2022-10-01T13:44:34;777.85;;;723.65;;
13609;SDS011;6876;50.788;4.940;2022-10-01T13:47:22;828.85;;;767.17;;
13609;SDS011;6876;50.788;4.940;2022-10-01T13:50:17;841.92;;;779.65;;
13609;SDS011;6876;50.788;4.940;2022-10-01T13:53:07;864.88;;;801.15;;
13609;SDS011;6876;50.788;4.940;2022-10-01T13:56:02;871.03;;;805.47;;
13609;SDS011;6876;50.788;4.940;2022-10-01T13:58:50;945.85;;;872.25;;
13609;SDS011;6876;50.788;4.940;2022-10-01T14:01:38;1070.93;;;975.97;;
13609;SDS011;6876;50.788;4.940;2022-10-01T14:04:30;966.15;;;890.25;;
13609;SDS011;6876;50.788;4.940;2022-10-01T14:07:22;1037.32;;;949.33;;
13609;SDS011;6876;50.788;4.940;2022-10-01T14:10:13;1026.80;;;938.10;;
13609;SDS011;6876;50.788;4.940;2022-10-01T14:13:03;925.08;;;853.17;;
13609;SDS011;6876;50.788;4.940;2022-10-01T14:16:08;813.97;;;755.85;;
13609;SDS011;6876;50.788;4.940;2022-10-01T14:18:56;833.92;;;773.90;;
13609;SDS011;6876;50.788;4.940;2022-10-01T14:21:46;970.47;;;895.40;;
13609;SDS011;6876;50.788;4.940;2022-10-01T14:24:52;950.88;;;877.38;;
13609;SDS011;6876;50.788;4.940;2022-10-01T14:27:58;961.33;;;886.25;;
13609;SDS011;6876;50.788;4.940;2022-10-01T14:30:57;986.88;;;907.70;;
13609;SDS011;6876;50.788;4.940;2022-10-01T14:33:58;945.78;;;872.42;;
13609;SDS011;6876;50.788;4.940;2022-10-01T14:37:14;1003.10;;;921.67;;
13609;SDS011;6876;50.788;4.940;2022-10-01T14:40:12;916.13;;;845.65;;
13609;SDS011;6876;50.788;4.940;2022-10-01T14:43:11;829.83;;;773.78;;
13609;SDS011;6876;50.788;4.940;2022-10-01T14:46:03;812.80;;;758.00;;
13609;SDS011;6876;50.788;4.940;2022-10-01T14:48:55;830.25;;;773.50;;
13609;SDS011;6876;50.788;4.940;2022-10-01T14:51:47;873.30;;;810.72;;
13609;SDS011;6876;50.788;4.940;2022-10-01T14:54:38;832.95;;;776.47;;
13609;SDS011;6876;50.788;4.940;2022-10-01T14:57:28;814.45;;;759.78;;
13609;SDS011;6876;50.788;4.940;2022-10-01T15:00:20;796.60;;;741.95;;
13609;SDS011;6876;50.788;4.940;2022-10-01T15:03:10;815.08;;;758.90;;
13609;SDS011;6876;50.788;4.940;2022-10-01T15:06:01;808.70;;;751.60;;
13609;SDS011;6876;50.788;4.940;2022-10-01T15:08:50;810.28;;;753.70;;
13609;SDS011;6876;50.788;4.940;2022-10-01T15:11:39;902.60;;;833.28;;
13609;SDS011;6876;50.788;4.940;2022-10-01T15:14:27;900.92;;;832.63;;
13609;SDS011;6876;50.788;4.940;2022-10-01T15:17:20;770.60;;;715.67;;
13609;SDS011;6876;50.788;4.940;2022-10-01T15:20:09;797.55;;;741.38;;
13609;SDS011;6876;50.788;4.940;2022-10-01T15:22:58;814.72;;;758.08;;
13609;SDS011;6876;50.788;4.940;2022-10-01T15:25:45;860.33;;;799.30;;
13609;SDS011;6876;50.788;4.940;2022-10-01T15:28:33;870.10;;;809.08;;
13609;SDS011;6876;50.788;4.940;2022-10-01T15:31:22;928.50;;;859.08;;
13609;SDS011;6876;50.788;4.940;2022-10-01T15:34:11;818.35;;;761.85;;
13609;SDS011;6876;50.788;4.940;2022-10-01T15:37:00;791.78;;;738.53;;
13609;SDS011;6876;50.788;4.940;2022-10-01T15:39:48;754.90;;;705.00;;
13609;SDS011;6876;50.788;4.940;2022-10-01T15:42:36;830.08;;;771.95;;
13609;SDS011;6876;50.788;4.940;2022-10-01T15:45:24;776.75;;;724.42;;
13609;SDS011;6876;50.788;4.940;2022-10-01T15:48:25;756.42;;;707.50;;
13609;SDS011;6876;50.788;4.940;2022-10-01T15:51:18;780.30;;;730.03;;
13609;SDS011;6876;50.788;4.940;2022-10-01T15:54:10;727.05;;;682.42;;
13609;SDS011;6876;50.788;4.940;2022-10-01T15:56:59;729.95;;;684.67;;
13609;SDS011;6876;50.788;4.940;2022-10-01T15:59:47;713.75;;;670.17;;
13609;SDS011;6876;50.788;4.940;2022-10-01T16:02:37;683.55;;;643.08;;
13609;SDS011;6876;50.788;4.940;2022-10-01T16:05:25;691.17;;;649.75;;
13609;SDS011;6876;50.788;4.940;2022-10-01T16:08:16;685.30;;;644.10;;
13609;SDS011;6876;50.788;4.940;2022-10-01T16:11:08;653.08;;;614.67;;
13609;SDS011;6876;50.788;4.940;2022-10-01T16:14:19;668.00;;;628.63;;
13609;SDS011;6876;50.788;4.940;2022-10-01T16:17:27;616.08;;;581.13;;
13609;SDS011;6876;50.788;4.940;2022-10-01T16:26:35;636.97;;;599.97;;
13609;SDS011;6876;50.788;4.940;2022-10-01T16:29:23;642.65;;;605.58;;
13609;SDS011;6876;50.788;4.940;2022-10-01T16:32:12;627.65;;;591.42;;
13609;SDS011;6876;50.788;4.940;2022-10-01T16:38:19;652.40;;;611.27;;
13609;SDS011;6876;50.788;4.940;2022-10-01T16:41:10;638.47;;;600.73;;
13609;SDS011;6876;50.788;4.940;2022-10-01T16:44:00;569.13;;;537.37;;
13609;SDS011;6876;50.788;4.940;2022-10-01T16:46:49;520.00;;;491.85;;
13609;SDS011;6876;50.788;4.940;2022-10-01T16:49:37;506.93;;;479.53;;
13609;SDS011;6876;50.788;4.940;2022-10-01T16:52:24;498.80;;;472.00;;